Aiguafreda





Hora UTC 18:15
Temperatura 21.1 ºC
Sòl 15 cm 20.9 ºC
Humitat 65.6 %
Pressió 1023.9 hPa
Pluja 0.0 mm
Velocitat vent 4.9 km/h
Direcció vent SSW
Radiació solar 0.0 W/m²

Dades diàries 2020-05-25



Hora UTC (hivern +1h; estiu +2h)
Temperatura (ºC) Humitat (%) Pressió (hPa) Velocitat vent (km/h) Precipitació (mm) Radiació solar (W/m²)
Hora UTC Aire Sòl 15 cm Humitat Pressió Vel. Dir. Vel. Max Dir. Intent. màx 5 min. Rad. Sol.
00:05 18.0 17.8 81.3 1025.7 0.0 NNE 0.0 WNW 0.0 0.1
00:10 18.0 17.9 81.3 1025.6 0.0 NNE 0.0 WNW 0.0 0.0
00:15 18.1 17.9 81.1 1025.5 0.0 NNE 0.0 NE 0.0 0.1
00:20 18.1 17.9 81.3 1025.5 0.0 NNE 0.0 NNE 0.0 0.0
00:25 18.1 17.8 81.1 1025.5 0.0 NNE 0.0 NNE 0.0 0.2
00:30 18.1 17.8 81.4 1025.4 0.0 NNE 0.0 NNE 0.0 0.2
00:35 18.1 17.9 81.4 1025.4 0.0 NNE 0.0 NNE 0.0 0.6
00:40 18.0 17.9 81.5 1025.3 0.0 NNE 0.0 NNE 0.0 0.1
00:45 18.0 17.9 82.1 1025.4 0.0 NNE 0.0 W 0.0 0.2
00:50 18.0 17.8 82.2 1025.3 0.2 NW 3.4 NNW 0.0 0.1
00:55 17.9 17.7 82.6 1025.2 0.4 N 3.4 N 0.0 0.1
01:00 17.9 17.7 82.9 1025.4 0.2 NNW 3.4 NW 0.0 1.2
01:05 17.9 17.7 83.3 1025.3 0.0 NNE 0.0 N 0.0 1.3
01:10 17.9 17.7 83.4 1025.1 0.0 NNE 0.0 NNE 0.0 1.5
01:15 18.0 17.6 83.1 1025.3 0.0 NNE 0.0 NNE 0.0 2.1
01:20 17.9 17.6 83.0 1025.1 0.0 NNE 0.0 WSW 0.0 2.3
01:25 17.9 17.7 83.2 1025.3 0.0 NNE 0.0 W 0.0 1.5
01:30 17.9 17.6 83.2 1025.2 0.0 NNE 0.0 NNW 0.0 1.6
01:35 17.9 17.6 83.5 1025.0 0.0 NNE 0.0 NNW 0.0 0.8
01:40 17.9 17.6 83.6 1025.1 0.0 NNE 0.0 SE 0.0 1.6
01:45 17.9 17.6 83.4 1025.1 0.0 NNE 0.0 WSW 0.0 2.2
01:50 17.9 17.6 83.5 1025.0 0.4 WSW 3.4 WSW 0.0 1.4
01:55 17.9 17.6 83.6 1024.9 0.7 SW 3.4 WSW 0.0 0.2
02:00 17.8 17.6 83.4 1024.9 0.6 SW 6.1 SSW 0.0 0.3
02:05 17.8 17.7 83.5 1024.9 0.0 WSW 3.4 WSW 0.0 1.4
02:10 17.9 17.7 83.8 1024.9 0.0 NNE 0.0 N 0.0 0.8
02:15 17.9 17.7 84.0 1025.0 0.3 NE 3.4 NNE 0.0 1.2
02:20 17.9 17.7 83.8 1024.9 0.0 NNE 0.0 NE 0.0 1.2
02:25 17.9 17.7 83.8 1024.8 0.0 NNE 0.0 NNW 0.0 2.6
02:30 17.9 17.7 84.0 1024.7 0.0 NNE 0.0 NW 0.0 2.4
02:35 17.9 17.6 83.7 1024.7 0.2 ESE 3.4 ESE 0.0 2.6
02:40 17.9 17.6 83.5 1024.8 0.0 NNE 0.0 SSE 0.0 1.3
02:45 17.9 17.6 83.3 1024.7 0.0 NNE 0.0 SSE 0.0 1.2
02:50 17.9 17.6 83.6 1024.7 0.0 NNE 0.0 S 0.0 1.2
02:55 17.8 17.5 83.6 1024.6 0.0 NNE 0.0 W 0.0 1.1
03:00 17.8 17.5 83.7 1024.7 0.0 NNE 0.0 W 0.0 1.0
03:05 17.7 17.5 84.4 1024.7 0.0 NNE 0.0 W 0.0 1.2
03:10 17.6 17.5 84.5 1024.7 0.0 NNE 0.0 WNW 0.0 1.4
03:15 17.6 17.4 84.5 1024.8 0.0 NNE 0.0 WNW 0.0 2.2
03:20 17.6 17.4 85.0 1024.8 0.0 NNE 0.0 WNW 0.0 1.9
03:25 17.6 17.4 85.1 1024.7 0.0 NNE 0.0 WNW 0.0 2.5
03:30 17.6 17.4 84.8 1024.8 0.0 NNE 0.0 S 0.0 2.2
03:35 17.6 17.4 84.5 1024.7 0.0 NNE 0.0 S 0.0 1.8
03:40 17.6 17.4 84.5 1024.7 0.0 NNE 0.0 S 0.0 2.6
03:45 17.6 17.4 84.4 1024.7 0.0 NNE 0.0 S 0.0 2.0
03:50 17.6 17.4 84.7 1024.8 0.0 NNE 0.0 S 0.0 2.5
03:55 17.5 17.4 84.9 1024.7 0.0 NNE 0.0 NW 0.0 2.6
04:00 17.5 17.4 84.9 1024.8 0.0 NNE 0.0 WNW 0.0 2.3
04:05 17.5 17.4 85.0 1024.9 0.0 NNE 0.0 WNW 0.0 2.5
04:10 17.5 17.4 85.1 1024.8 0.0 NNE 0.0 WNW 0.0 2.8
04:15 17.5 17.3 85.6 1024.8 0.0 NNE 0.0 WNW 0.0 3.5
04:20 17.5 17.4 85.7 1024.7 0.0 NNE 0.0 WNW 0.0 4.5
04:25 17.5 17.3 85.5 1024.9 0.0 NNE 0.0 WNW 0.0 6.2
04:30 17.5 17.3 84.6 1024.8 0.0 NNE 0.0 WNW 0.0 8.3
04:35 17.5 17.3 84.2 1024.7 0.1 SW 3.4 SW 0.0 11.5
04:40 17.5 17.2 83.9 1024.8 0.0 NNE 0.0 SW 0.0 14.0
04:45 17.5 17.2 83.9 1024.9 0.0 NNE 0.0 SE 0.0 16.4
04:50 17.5 17.2 83.8 1024.9 0.0 NNE 0.0 SSE 0.0 13.6
04:55 17.5 17.3 83.7 1025.1 0.0 NNE 0.0 SE 0.0 14.7
05:00 17.4 17.2 83.9 1025.1 0.0 NNE 0.0 SSW 0.0 18.9
05:05 17.4 17.2 83.2 1025.1 2.5 S 6.1 S 0.0 17.5
05:10 17.3 17.2 82.4 1025.2 1.0 SSE 6.1 SSE 0.0 16.4
05:15 17.4 17.3 82.7 1025.1 0.0 NNE 0.0 SSE 0.0 15.9
05:20 17.5 17.3 82.4 1025.1 1.4 SSW 6.1 SW 0.0 16.4
05:25 17.4 17.4 81.1 1025.2 0.2 SSW 3.4 SSW 0.0 24.6
05:30 17.4 17.5 80.3 1025.4 0.7 SE 6.1 ESE 0.0 32.8
05:35 17.5 17.5 80.1 1025.2 0.2 SSE 3.4 SE 0.0 34.4
05:40 17.6 17.6 80.2 1025.3 0.0 NNE 0.0 SSE 0.0 37.9
05:45 17.7 17.8 79.5 1025.5 0.0 NNE 0.0 SW 0.0 43.7
05:50 17.8 17.9 79.7 1025.4 0.0 NNE 0.0 NE 0.0 37.5
05:55 17.8 17.8 80.0 1025.4 0.0 NNE 0.0 NE 0.0 45.4
06:00 17.8 17.8 80.2 1025.6 0.0 NNE 0.0 E 0.0 49.0
06:05 17.9 18.0 79.6 1025.5 0.0 NNE 0.0 ENE 0.0 64.6
06:10 17.9 18.1 78.6 1025.8 0.0 NNE 0.0 SE 0.0 46.2
06:15 18.0 18.1 78.6 1025.8 0.7 SE 6.1 SE 0.0 32.9
06:20 17.9 18.0 77.0 1025.7 3.1 SSE 6.1 SE 0.0 38.4
06:25 17.9 18.0 74.6 1025.6 3.2 SSE 8.8 S 0.0 58.9
06:30 18.0 18.1 72.4 1025.6 5.2 SSE 11.5 S 0.0 86.0
06:35 18.1 18.3 71.0 1025.7 5.8 SSE 11.5 SSE 0.0 98.7
06:40 18.2 18.5 70.9 1025.6 4.3 SE 11.5 SSE 0.0 102.8
06:45 18.2 18.6 71.2 1025.5 7.6 SE 14.2 SE 0.0 118.1
06:50 18.1 18.5 70.9 1025.7 6.8 SSE 11.5 SSE 0.0 131.5
06:55 18.3 18.8 70.4 1025.6 6.7 SE 14.2 S 0.0 173.0
07:00 18.5 19.3 68.8 1025.4 6.1 SE 11.5 E 0.0 194.5
07:05 18.7 19.3 66.0 1025.5 5.1 SE 11.5 SE 0.0 162.0
07:10 18.7 19.4 66.0 1025.5 5.9 SE 11.5 SE 0.0 149.2
07:15 18.7 19.4 64.8 1025.5 5.8 SE 11.5 SSE 0.0 149.9
07:20 18.8 19.6 63.7 1025.6 3.7 SE 8.8 ESE 0.0 190.3
07:25 18.9 19.8 62.9 1025.7 5.2 SE 8.8 SE 0.0 195.8
07:30 19.0 20.0 61.9 1025.6 5.0 SSE 11.5 SSE 0.0 199.2
07:35 19.0 20.1 61.8 1025.5 5.1 SSE 8.8 SSE 0.0 197.9
07:40 19.2 20.3 60.5 1025.6 4.4 SE 8.8 SSE 0.0 234.3
07:45 19.3 20.5 60.8 1025.4 4.9 SE 11.5 ESE 0.0 253.3
07:50 19.5 20.7 60.2 1025.7 5.0 S 8.8 SSE 0.0 244.5
07:55 19.5 20.7 61.1 1025.5 4.0 S 8.8 SE 0.0 214.9
08:00 19.7 21.0 62.5 1025.5 2.8 S 8.8 SW 0.0 295.2
08:05 19.9 21.5 61.2 1025.5 3.5 SW 11.5 SW 0.0 386.8
08:10 20.2 22.0 61.0 1025.4 3.4 SSW 8.8 SSW 0.0 417.1
08:15 20.3 22.6 60.6 1025.3 1.9 SW 6.1 SW 0.0 359.7
08:20 20.4 22.2 59.8 1025.5 3.9 SW 8.8 SW 0.0 312.6
08:25 20.5 23.2 60.1 1025.5 2.8 SSW 8.8 SSW 0.0 627.8
08:30 21.1 24.1 58.0 1025.3 2.8 SE 8.8 SE 0.0 629.0
08:35 21.4 25.2 56.2 1025.4 1.1 SSE 11.5 S 0.0 642.4
08:40 21.8 25.8 55.8 1025.4 3.7 SE 11.5 SE 0.0 662.4
08:45 22.0 26.4 54.0 1025.4 2.5 SSW 6.1 S 0.0 693.7
08:50 22.3 27.5 53.3 1025.5 5.1 SSW 11.5 SSE 0.0 719.0
08:55 22.3 27.0 53.6 1025.3 5.8 SE 11.5 SSE 0.0 765.3
09:00 22.4 27.2 53.6 1025.3 4.1 ESE 11.5 SE 0.0 770.2
09:05 22.6 27.5 53.0 1025.3 3.5 SE 14.2 SSE 0.0 791.6
09:10 22.6 28.0 53.6 1025.5 6.6 S 14.2 SSE 0.0 799.1
09:15 23.0 28.3 51.9 1025.4 4.0 SE 14.2 SW 0.0 775.0
09:20 22.9 27.2 52.2 1025.4 7.0 SSW 14.2 S 0.0 535.1
09:25 23.0 27.4 52.1 1025.4 4.2 S 14.2 S 0.0 455.1
09:30 22.8 26.2 52.2 1025.4 8.0 S 14.2 SSW 0.0 416.9
09:35 22.6 26.0 53.4 1025.5 8.4 SSE 16.9 SSE 0.0 487.6
09:40 22.6 26.4 53.6 1025.5 9.2 SSE 16.9 SSE 0.0 878.0
09:45 23.6 28.9 52.2 1025.5 8.4 SSE 16.9 SE 0.0 1176.0
09:50 23.7 27.9 50.4 1025.5 4.9 SSE 14.2 ESE 0.0 537.3
09:55 23.2 26.8 52.1 1025.5 7.7 SSE 16.9 SE 0.0 410.8
10:00 22.9 26.2 53.7 1025.5 6.8 SSE 14.2 SE 0.0 282.6
10:05 22.9 25.9 53.7 1025.6 3.3 SSE 11.5 SSE 0.0 216.3
10:10 22.8 25.1 53.6 1025.5 7.4 SSW 16.9 SSW 0.0 212.3
10:15 22.4 24.4 55.6 1025.6 8.1 SE 14.2 SE 0.0 207.9
10:20 22.2 24.1 56.4 1025.6 8.4 SSE 16.9 SSW 0.0 243.4
10:25 22.1 23.8 57.1 1025.5 6.8 SSE 14.2 SE 0.0 265.4
10:30 22.0 23.8 57.9 1025.7 7.7 SSE 14.2 SSE 0.0 316.7
10:35 22.1 24.2 58.2 1025.5 5.0 SE 11.5 SE 0.0 413.6
10:40 22.4 24.6 57.5 1025.6 3.8 SSE 11.5 SSE 0.0 451.8
10:45 22.6 25.4 56.7 1025.4 3.5 SE 8.8 SSE 0.0 518.0
10:50 23.0 26.1 55.8 1025.3 2.2 SE 6.1 ESE 0.0 534.6
10:55 23.2 26.1 56.4 1025.4 2.8 ESE 8.8 ESE 0.0 445.6
11:00 23.5 26.2 55.4 1025.2 3.2 NE 11.5 NE 0.0 393.8
11:05 23.3 25.5 55.7 1025.2 3.3 E 8.8 ESE 0.0 332.6
11:10 23.0 25.2 55.5 1025.3 1.5 SE 8.8 SE 0.0 309.6
11:15 22.9 25.6 57.6 1025.1 2.8 E 8.8 SE 0.0 287.0
11:20 22.9 25.3 57.1 1025.4 1.5 SE 8.8 SE 0.0 262.4
11:25 22.7 24.7 57.8 1025.3 3.9 SSE 11.5 S 0.0 297.0
11:30 22.7 24.6 57.4 1025.3 3.5 S 8.8 SSE 0.0 290.4
11:35 22.7 24.6 57.8 1025.3 3.1 SSE 8.8 SE 0.0 284.1
11:40 22.7 24.5 57.5 1025.2 4.1 SSE 8.8 SE 0.0 289.2
11:45 22.6 24.6 57.4 1025.2 2.6 SSE 8.8 S 0.0 290.3
11:50 22.8 25.2 57.9 1025.3 0.6 SE 6.1 ESE 0.0 267.1
11:55 23.0 25.5 57.4 1025.3 0.8 ESE 6.1 ESE 0.0 302.2
12:00 23.3 26.1 54.4 1025.3 0.0 NNE 0.0 SE 0.0 396.8
12:05 23.5 26.7 54.3 1025.1 0.3 E 6.1 ESE 0.0 423.8
12:10 23.8 26.3 55.2 1025.2 0.9 ESE 6.1 E 0.0 440.4
12:15 24.0 27.6 51.8 1025.0 0.0 NNE 0.0 NNE 0.0 480.8
12:20 24.2 27.7 53.2 1024.9 0.8 S 6.1 S 0.0 496.9
12:25 24.1 27.3 52.5 1024.9 3.8 SSE 8.8 SSE 0.0 503.0
12:30 23.9 27.5 53.1 1024.9 1.4 SSW 8.8 SW 0.0 474.5
12:35 24.2 28.2 52.3 1024.8 1.1 W 6.1 W 0.0 446.6
12:40 24.7 29.1 52.3 1024.8 0.2 W 6.1 WSW 0.0 402.0
12:45 25.0 28.7 51.0 1024.6 2.5 S 8.8 SW 0.0 344.9
12:50 24.9 28.7 52.0 1024.6 2.8 S 8.8 SE 0.0 419.7
12:55 25.0 28.7 50.9 1024.5 2.2 SW 8.8 SW 0.0 264.6
13:00 24.9 28.7 50.6 1024.7 0.2 SW 6.1 SW 0.0 235.3
13:05 25.0 28.2 51.7 1024.6 0.1 SSW 3.4 SSW 0.0 228.0
13:10 24.6 27.2 52.1 1024.6 0.8 SE 6.1 SSE 0.0 67.1
13:15 24.4 26.7 52.5 1024.6 1.9 WSW 8.8 SW 0.0 13.6
13:20 24.4 26.6 53.5 1024.3 0.8 S 6.1 SSE 0.0 87.1
13:25 24.3 26.3 52.8 1024.5 4.1 SW 8.8 W 0.0 52.0
13:30 24.3 26.3 53.8 1024.5 2.0 SSE 8.8 SSE 0.0 37.5
13:35 24.2 26.0 53.9 1024.5 3.2 SSE 8.8 S 0.0 40.4
13:40 24.0 26.1 53.9 1024.4 2.8 SSE 11.5 SSE 0.0 3.1
13:45 24.2 26.3 53.1 1024.4 5.9 SSE 14.2 SSW 0.0 1.0
13:50 23.9 25.7 52.2 1024.4 9.1 SSE 16.9 SE 0.0 2.2
13:55 23.9 25.8 52.4 1024.5 4.4 S 11.5 S 0.0 0.0
14:00 23.8 25.7 52.8 1024.3 7.4 SSE 14.2 SSE 0.0 0.2
14:05 23.8 25.7 53.6 1024.4 4.3 SSE 14.2 ESE 0.0 0.1
14:10 23.8 25.5 53.6 1024.3 6.3 SSE 14.2 SE 0.0 20.9
14:15 23.5 25.0 53.8 1024.4 6.6 SSE 16.9 SE 0.0 79.6
14:20 23.4 24.9 54.0 1024.3 6.0 SSE 11.5 S 0.0 170.9
14:25 23.4 24.9 53.7 1024.4 6.5 SSE 14.2 S 0.0 131.3
14:30 23.5 25.2 52.8 1024.2 7.4 SSE 14.2 SSE 0.0 181.9
14:35 23.6 25.5 53.1 1024.2 7.1 SSE 11.5 SSE 0.0 186.9
14:40 23.7 25.5 52.5 1024.2 7.7 SSE 14.2 SE 0.0 153.9
14:45 23.7 25.7 52.3 1024.1 7.5 SSE 11.5 SSE 0.0 209.9
14:50 23.7 25.7 52.4 1024.1 5.3 SSE 11.5 SSE 0.0 250.1
14:55 23.8 25.8 52.0 1023.9 7.3 SSE 14.2 SSE 0.0 257.4
15:00 23.7 25.9 52.4 1024.2 3.4 SSE 8.8 S 0.0 297.0
15:05 24.1 26.6 51.8 1024.0 3.0 S 8.8 S 0.0 255.9
15:10 24.2 26.5 51.8 1024.0 4.1 SE 8.8 SSE 0.0 282.6
15:15 24.4 27.1 52.4 1023.8 2.8 S 8.8 SSE 0.0 328.3
15:20 24.5 27.2 51.7 1024.0 2.7 SE 6.1 SE 0.0 206.7
15:25 24.5 27.3 50.9 1023.9 3.3 SSE 11.5 SSE 0.0 202.8
15:30 24.2 26.5 51.9 1024.0 5.8 SE 11.5 SSE 0.0 192.4
15:35 24.2 26.4 51.9 1023.9 3.7 SSE 11.5 S 0.0 187.4
15:40 24.4 26.7 52.5 1024.1 3.0 SSE 8.8 SSE 0.0 212.7
15:45 24.5 26.8 51.2 1024.1 5.7 S 11.5 SSE 0.0 303.7
15:50 24.3 26.5 52.0 1023.8 8.8 SSE 16.9 SSE 0.0 259.2
15:55 24.0 26.3 52.5 1024.1 9.4 SSE 16.9 SSE 0.0 204.6
16:00 23.7 25.8 53.2 1023.9 10.0 SSE 19.6 SE 0.0 203.5
16:05 23.6 25.8 54.6 1024.0 9.5 SE 16.9 S 0.0 260.5
16:10 23.9 26.5 53.5 1023.8 8.5 SSE 14.2 SSE 0.0 244.3
16:15 24.2 26.9 53.0 1023.7 8.0 SSE 16.9 SSE 0.0 233.0
16:20 24.4 27.2 52.8 1023.7 9.9 SSE 16.9 SSE 0.0 247.5
16:25 24.2 26.9 53.7 1023.8 8.9 SSE 16.9 SSE 0.0 281.5
16:30 24.2 27.0 54.2 1023.7 8.9 SSE 16.9 SSE 0.0 244.3
16:35 24.0 26.8 54.4 1023.6 9.6 SSE 16.9 SSE 0.0 155.5
16:40 23.9 26.7 54.9 1023.7 6.5 SE 14.2 SSE 0.0 144.5
16:45 24.1 26.5 54.4 1023.6 6.8 SSE 11.5 ESE 0.0 144.8
16:50 24.0 26.5 54.9 1023.5 7.0 SSE 14.2 SSE 0.0 94.4
16:55 23.8 26.0 55.4 1023.5 7.8 SSE 14.2 SE 0.0 118.4
17:00 23.9 26.0 55.4 1023.5 6.9 SSE 14.2 S 0.0 139.1
17:05 23.7 25.6 56.1 1023.5 10.4 SSE 19.6 SE 0.0 123.8
17:10 23.6 25.4 57.4 1023.5 11.0 SSE 19.6 SSE 0.0 135.1
17:15 23.5 24.6 57.6 1023.7 9.1 SSE 14.2 SE 0.0 205.7
17:20 23.3 24.0 58.4 1023.6 6.0 S 16.9 S 0.0 145.7
17:25 23.2 23.6 58.3 1023.7 8.6 S 16.9 S 0.0 135.8
17:30 22.8 22.9 59.6 1023.6 10.0 SSE 16.9 SSE 0.0 60.4
17:35 22.6 22.6 60.9 1023.7 6.8 S 14.2 SSE 0.0 0.0
17:40 22.4 22.3 61.4 1023.7 7.6 S 14.2 S 0.0 0.0
17:45 22.2 22.1 62.3 1023.9 9.7 SSE 16.9 SE 0.0 0.0
17:50 21.9 21.8 62.8 1023.8 7.0 S 14.2 SSE 0.0 0.1
17:55 21.9 21.7 63.0 1023.8 6.0 S 11.5 S 0.0 0.0
18:00 21.7 21.5 63.5 1023.7 6.4 SW 11.5 SSW 0.0 0.0
18:05 21.5 21.3 64.5 1023.6 6.3 SW 11.5 SSW 0.0 0.0
18:10 21.3 21.1 64.9 1023.8 4.7 SW 8.8 SW 0.0 0.0
18:15 21.1 20.9 65.6 1023.9 4.9 SSW 11.5 SSW 0.0 0.0
Màxima 25.1 29.1 85.7 1025.8 11.0 SSE 19.6 SSE 0.0 1176.0
Mínima 17.3 17.2 50.4 1023.5
Total 0.0